Zlatibor, Serbia
Current Conditions -  °F | °C
As of 10:00 AM on Monday 24 Nov 2014 (Local Time) from LYUZ Reporting Station
Moderate Fog Moderate Fog  
Wind Chill: 24°   Ceiling: Unl
Heat Index: 30°   Visibility: 0.06mi
Dew Point: 30°   Wind: 6mph
Humidity: 100%   Direction: 90°E
Pressure: 30.27"   Gusts: NA
Location:  43.72°N, 19.7°E
Report Text: LYUZ 240800Z 09005KT 0100 FZFG NSC M01/M01 Q1025
Loading
Personal Weather Stations






























Interactive Weather Map New forecast layout! Learn more

10-Day Weather Forecast

Advertisements
Track Severe Weather on mobile